createdAt,value
2023-04-02T00:00:54.082Z,28.2
2023-04-02T00:06:16.129Z,27.4
2023-04-02T00:12:07.507Z,26.7
2023-04-02T00:17:58.523Z,26
2023-04-02T00:23:51.620Z,30.9
2023-04-02T00:29:44.095Z,31.6
2023-04-02T00:35:36.347Z,30.5
2023-04-02T00:41:27.604Z,29.6
2023-04-02T00:47:19.798Z,28.7
2023-04-02T00:53:11.455Z,27.9
2023-04-02T00:58:47.107Z,27.1
2023-04-02T01:04:41.433Z,26.4
2023-04-02T01:10:34.032Z,28
2023-04-02T01:16:25.996Z,32.2
2023-04-02T01:22:18.619Z,31
2023-04-02T01:28:10.637Z,30
2023-04-02T01:34:01.749Z,29.1
2023-04-02T01:39:53.550Z,28.3
2023-04-02T01:45:45.302Z,27.4
2023-04-02T01:51:36.067Z,26.6
2023-04-02T01:57:12.952Z,25.7
2023-04-02T02:03:04.944Z,30.8
2023-04-02T02:08:56.578Z,31.4
2023-04-02T02:14:48.977Z,30.4
2023-04-02T02:20:41.123Z,26.4
2023-04-02T02:26:32.133Z,25.6
2023-04-02T02:32:24.051Z,24.1
2023-04-02T02:38:15.983Z,23.6
2023-04-02T02:44:07.762Z,23.2
2023-04-02T02:50:00.753Z,22.8
2023-04-02T02:55:54.540Z,22.6
2023-04-02T03:01:45.887Z,28.3
2023-04-02T03:07:38.804Z,32.3
2023-04-02T03:13:30.576Z,30.9
2023-04-02T03:24:43.431Z,25.9
2023-04-02T03:30:35.382Z,24.5
2023-04-02T03:36:12.157Z,24
2023-04-02T03:42:04.002Z,23.4
2023-04-02T03:47:55.541Z,23.1
2023-04-02T03:53:46.796Z,22.6
2023-04-02T03:59:35.503Z,22.4
2023-04-02T04:05:27.497Z,30.3
2023-04-02T04:11:17.882Z,31.6
2023-04-02T04:17:11.125Z,30.5
2023-04-02T04:23:02.802Z,26.5
2023-04-02T04:28:54.121Z,25.6
2023-04-02T04:34:46.726Z,24.2
2023-04-02T04:40:38.747Z,23.7
2023-04-02T04:46:30.241Z,23.2
2023-04-02T04:52:21.642Z,22.8
2023-04-02T04:58:30.476Z,22.6
2023-04-02T05:04:24.582Z,28
2023-04-02T05:10:16.205Z,32.1
2023-04-02T05:16:07.759Z,30.9
2023-04-02T05:21:43.710Z,27.9
2023-04-02T05:27:37.560Z,25.9
2023-04-02T05:33:28.960Z,24.5
2023-04-02T05:39:20.061Z,24
2023-04-02T05:45:12.000Z,23.8
2023-04-02T05:51:03.503Z,23.6
2023-04-02T05:56:54.896Z,29.6
2023-04-02T06:03:19.740Z,32
2023-04-02T06:09:11.578Z,30.8
2023-04-02T06:15:04.070Z,29.9
2023-04-02T06:20:55.696Z,29.1
2023-04-02T06:26:31.636Z,28.3
2023-04-02T06:32:22.328Z,27.5
2023-04-02T06:37:58.441Z,26.6
2023-04-02T06:43:34.257Z,31.4
2023-04-02T06:49:11.534Z,31.8
2023-04-02T06:54:47.796Z,30.8
2023-04-02T07:00:25.346Z,29.9
2023-04-02T07:06:02.222Z,29.1
2023-04-02T07:11:23.323Z,28.3
2023-04-02T07:17:00.640Z,27.6
2023-04-02T07:22:36.395Z,26.9
2023-04-02T07:28:15.020Z,30.6
2023-04-02T07:33:51.536Z,32.2
2023-04-02T07:39:27.626Z,31.1
2023-04-02T07:45:22.322Z,30.1
2023-04-02T07:50:59.517Z,29.3
2023-04-02T07:56:35.662Z,28.5
2023-04-02T08:02:28.594Z,27.7
2023-04-02T08:08:05.804Z,26.9
2023-04-02T08:13:59.852Z,25.7
2023-04-02T08:20:04.163Z,32.3
2023-04-02T08:25:40.793Z,31.1
2023-04-02T08:31:32.694Z,30
2023-04-02T08:37:24.639Z,29.1
2023-04-02T08:43:16.433Z,28.3
2023-04-02T08:49:00.654Z,32.1
2023-04-02T08:54:37.203Z,31.3
2023-04-02T08:59:58.489Z,30.1
2023-04-02T09:05:36.722Z,29.3
2023-04-02T09:11:30.965Z,28.5
2023-04-02T09:17:22.770Z,30.3
2023-04-02T09:23:28.157Z,31.9
2023-04-02T09:29:16.494Z,30.3
2023-04-02T09:35:15.255Z,29.4
2023-04-02T09:40:57.783Z,28.6
2023-04-02T09:47:02.638Z,27
2023-04-02T09:52:56.412Z,33.1
2023-04-02T09:58:34.769Z,30.8
2023-04-02T10:04:25.866Z,29.8
2023-04-02T10:10:19.128Z,28.9
2023-04-02T10:16:25.572Z,28.1
2023-04-02T10:22:30.039Z,31.3
2023-04-02T10:28:22.497Z,31.8
2023-04-02T10:34:14.103Z,30.6
2023-04-02T10:40:06.171Z,29.7
2023-04-02T10:46:09.801Z,28.8
2023-04-02T10:52:01.186Z,27.9
2023-04-02T10:57:51.333Z,27
2023-04-02T11:03:43.844Z,26.9
2023-04-02T11:09:51.886Z,32.7
2023-04-02T11:15:28.164Z,30.9
2023-04-02T11:21:24.045Z,30
2023-04-02T11:27:29.758Z,29.1
2023-04-02T11:33:07.226Z,28.2
2023-04-02T11:39:33.929Z,30.1
2023-04-02T11:45:09.674Z,32.3
2023-04-02T11:51:08.656Z,31.2
2023-04-02T11:57:09.799Z,30.2
2023-04-02T12:03:03.454Z,29.3
2023-04-02T12:09:07.113Z,28.4
2023-04-02T12:14:58.678Z,27.5
2023-04-02T12:20:36.007Z,26.8
2023-04-02T12:26:27.373Z,29
2023-04-02T12:32:19.785Z,32.5
2023-04-02T12:38:10.656Z,31.2
2023-04-02T12:44:01.704Z,30.2
2023-04-02T12:49:54.228Z,29.3
2023-04-02T12:55:44.582Z,28.4
2023-04-02T13:01:37.496Z,27.6
2023-04-02T13:07:29.438Z,26.8
2023-04-02T13:13:20.037Z,28
2023-04-02T13:19:11.525Z,32.7
2023-04-02T13:25:03.361Z,31.1
2023-04-02T13:30:38.553Z,30.1
2023-04-02T13:36:15.819Z,29.3
2023-04-02T13:42:08.280Z,28.4
2023-04-02T13:47:59.165Z,27.6
2023-04-02T13:53:51.524Z,26.3
2023-04-02T13:59:12.857Z,32.8
2023-04-02T14:05:06.998Z,31.6
2023-04-02T14:10:43.691Z,30.5
2023-04-02T14:16:35.699Z,29.6
2023-04-02T14:22:28.944Z,28.6
2023-04-02T14:33:27.454Z,27.1
2023-04-02T14:39:19.592Z,26.4
2023-04-02T14:45:11.683Z,32.9
2023-04-02T14:51:03.644Z,31.4
2023-04-02T14:56:54.742Z,30.3
2023-04-02T15:02:47.545Z,29.4
2023-04-02T15:08:39.868Z,28.5
2023-04-02T15:14:43.839Z,27.6
2023-04-02T15:20:48.218Z,26.9
2023-04-02T15:26:23.342Z,29.9
2023-04-02T15:32:31.657Z,32.1
2023-04-02T15:38:24.346Z,30.9
2023-04-02T15:44:16.940Z,29.9
2023-04-02T15:50:08.854Z,29
2023-04-02T15:55:45.509Z,28.2
2023-04-02T16:01:40.709Z,27.4
2023-04-02T16:07:19.148Z,26.7
2023-04-02T16:13:07.670Z,27.6
2023-04-02T16:19:16.468Z,32.3
2023-04-02T16:25:21.804Z,30.9
2023-04-02T16:31:33.251Z,29.9
2023-04-02T16:37:55.752Z,29.1
2023-04-02T16:43:58.221Z,28.3
2023-04-02T16:49:58.183Z,27.6
2023-04-02T16:55:44.379Z,26.9
2023-04-02T17:01:20.148Z,31.7
2023-04-02T17:07:12.688Z,31.4
2023-04-02T17:13:04.600Z,30.4
2023-04-02T17:19:02.596Z,29.6
2023-04-02T17:25:03.067Z,28.8
2023-04-02T17:30:55.449Z,28.1
2023-04-02T17:36:47.001Z,27.4
2023-04-02T17:42:23.500Z,26.8
2023-04-02T17:47:44.712Z,30.1
2023-04-02T17:53:38.736Z,31.8
2023-04-02T17:59:30.220Z,30.7
2023-04-02T18:05:25.755Z,29.8
2023-04-02T18:11:17.334Z,29
2023-04-02T18:17:09.201Z,28.3
2023-04-02T18:23:02.966Z,27.6
2023-04-02T18:28:39.139Z,26.9
2023-04-02T18:34:31.764Z,26.4
2023-04-02T18:40:22.961Z,31.2
2023-04-02T18:46:14.449Z,31.4
2023-04-02T18:52:05.763Z,30.4
2023-04-02T18:57:57.398Z,29.6
2023-04-02T19:03:51.333Z,28.7
2023-04-02T19:09:28.187Z,27.9
2023-04-02T19:15:19.303Z,27.2
2023-04-02T19:21:11.699Z,26.6
2023-04-02T19:27:06.060Z,25.9
2023-04-02T19:32:57.874Z,32.4
2023-04-02T19:38:33.050Z,31.1
2023-04-02T19:44:24.341Z,30.2
2023-04-02T19:50:00.806Z,29.4
2023-04-02T19:55:36.637Z,28.6
2023-04-02T20:01:47.170Z,27.9
2023-04-02T20:07:23.284Z,27.1
2023-04-02T20:13:15.157Z,26.5
2023-04-02T20:19:06.759Z,29.8
2023-04-02T20:24:59.210Z,31.7
2023-04-02T20:30:04.037Z,30.6
2023-04-02T20:35:41.890Z,29.9
2023-04-02T20:41:03.237Z,29.1
2023-04-02T20:46:55.150Z,28.4
2023-04-02T20:52:31.768Z,26.7
2023-04-02T20:58:07.445Z,31.9
2023-04-02T21:03:43.529Z,32.9
2023-04-02T21:09:34.904Z,31.1
2023-04-02T21:15:27.021Z,30.2
2023-04-02T21:21:19.446Z,29.3
2023-04-02T21:26:55.993Z,30.8
2023-04-02T21:32:39.459Z,33.6
2023-04-02T21:38:32.467Z,31.3
2023-04-02T21:44:24.899Z,30.3
2023-04-02T21:50:17.177Z,29.4
2023-04-02T22:01:57.255Z,32.5
2023-04-02T22:07:55.576Z,31.9
2023-04-02T22:13:46.597Z,30.6
2023-04-02T22:19:39.766Z,29.7
2023-04-02T22:25:32.057Z,28.9
2023-04-02T22:30:52.806Z,30.8
2023-04-02T22:36:14.089Z,33.4
2023-04-02T22:42:05.323Z,31.3
2023-04-02T22:47:56.331Z,30.2
2023-04-02T22:53:47.886Z,29.4
2023-04-02T22:59:24.296Z,28.6
2023-04-02T23:05:01.551Z,31.2
2023-04-02T23:10:23.156Z,32.7
2023-04-02T23:15:43.574Z,31
2023-04-02T23:21:19.376Z,30.1
2023-04-02T23:26:39.762Z,29.3
2023-04-02T23:32:00.762Z,28.6
2023-04-02T23:37:37.193Z,30.5
2023-04-02T23:43:29.075Z,33.2
2023-04-02T23:49:20.838Z,31.1
2023-04-02T23:55:12.072Z,30.1
